Moselle, Missouri
Current Conditions -  °F | °C
As of 5:55 PM on Sunday 23 Nov 2014 (Local Time) from KFYG Reporting Station
Haze Haze  
Wind Chill: 12°   Ceiling: 600
Heat Index: 12°   Visibility: 1.5mi
Dew Point: 12°   Wind: 0mph
Humidity: 100%   Direction: NA
Pressure: 29.29"   Gusts: NA
Location:  38.4268°N, 91.0473°W
Report Text: KFYG 232355Z AUTO 00000KT 1 1/2SM BR OVC006 12/12 A2929 RMK AO2
Loading
Personal Weather Stations






























Interactive Weather Map New forecast layout! Learn more

10-Day Weather Forecast

Advertisements
Track Severe Weather on mobile